Time;durP1;ratioP1;P1;durP2;ratioP2;P2;SDS_P1;SDS_P2;PMS_P1;PMS_P2;Temp;Humidity;BMP_temperature;BMP_pressure;BME280_temperature;BME280_humidity;BME280_pressure;Samples;Min_cycle;Max_cycle;Signal;HPM_P1;HPM_P2
2021/12/03 00:00:14;;;;;;;8.85;2.22;;;;;;;4.83;49.03;100270.28;6181801;22;98849;-77
2021/12/03 00:02:40;;;;;;;7.45;2.75;;;;;;;4.80;49.37;100279.03;6182434;22;95842;-77
2021/12/03 00:05:09;;;;;;;14.18;2.33;;;;;;;4.90;48.97;100284.97;6182307;22;96468;-76
2021/12/03 00:07:37;;;;;;;18.30;2.00;;;;;;;4.10;50.75;100294.28;6180411;22;98259;-76
2021/12/03 00:10:06;;;;;;;8.43;1.60;;;;;;;4.62;49.71;100289.88;6179795;22;101061;-77
2021/12/03 00:12:34;;;;;;;4.43;1.55;;;;;;;4.73;49.59;100295.75;6161038;22;96853;-76
2021/12/03 00:15:01;;;;;;;9.35;1.88;;;;;;;4.71;48.96;100289.72;6160960;22;96762;-77
2021/12/03 00:17:27;;;;;;;4.93;1.88;;;;;;;4.88;49.10;100301.59;6155326;22;101324;-76
2021/12/03 00:19:54;;;;;;;7.40;1.60;;;;;;;4.81;48.70;100304.34;6157695;22;98770;-77
2021/12/03 00:22:21;;;;;;;8.88;1.60;;;;;;;4.01;50.87;100308.34;6156014;22;96565;-77
2021/12/03 00:24:47;;;;;;;8.75;1.55;;;;;;;4.56;50.57;100307.44;6156002;22;97225;-77
2021/12/03 00:27:14;;;;;;;11.73;1.65;;;;;;;4.59;50.48;100308.25;6154975;22;100628;-77
2021/12/03 00:29:42;;;;;;;5.53;1.70;;;;;;;4.71;50.05;100312.41;6155406;22;99134;-78
2021/12/03 00:32:09;;;;;;;5.97;1.67;;;;;;;4.87;49.22;100310.34;6155234;22;96598;-77
2021/12/03 00:34:35;;;;;;;7.80;1.55;;;;;;;4.43;50.18;100305.94;6156218;22;96787;-77
2021/12/03 00:37:02;;;;;;;9.35;1.52;;;;;;;4.70;49.52;100290.59;6154974;22;99581;-76
2021/12/03 00:39:29;;;;;;;10.77;1.48;;;;;;;4.41;50.78;100293.72;6155714;22;100046;-77
2021/12/03 00:41:58;;;;;;;6.80;1.60;;;;;;;4.41;50.07;100304.19;6155339;22;96660;-77
2021/12/03 00:44:26;;;;;;;12.13;1.83;;;;;;;4.77;49.45;100299.19;6156260;22;96826;-78
2021/12/03 00:46:54;;;;;;;7.28;1.50;;;;;;;4.91;48.56;100299.81;6156725;22;98863;-77
2021/12/03 00:49:20;;;;;;;9.13;1.85;;;;;;;4.91;48.65;100291.09;6156749;22;101148;-78
2021/12/03 00:51:47;;;;;;;6.55;1.60;;;;;;;4.81;48.74;100303.47;6157207;22;97299;-78
2021/12/03 00:54:14;;;;;;;10.68;1.83;;;;;;;4.06;51.23;100309.16;6159595;22;96765;-78
2021/12/03 00:56:41;;;;;;;7.45;1.98;;;;;;;4.62;49.58;100317.78;6155878;22;100313;-77
2021/12/03 00:59:07;;;;;;;7.95;2.10;;;;;;;4.77;49.40;100317.53;6157119;22;97470;-78
2021/12/03 01:01:34;;;;;;;9.45;1.95;;;;;;;4.54;49.87;100317.91;6157162;22;96776;-78
2021/12/03 01:04:02;;;;;;;8.30;1.98;;;;;;;4.80;49.73;100317.44;6156991;22;96744;-78
2021/12/03 01:06:29;;;;;;;9.38;1.70;;;;;;;4.73;49.06;100316.69;6155375;22;99120;-78
2021/12/03 01:08:56;;;;;;;8.13;1.52;;;;;;;4.78;48.72;100312.25;6156008;22;101638;-78
2021/12/03 01:11:22;;;;;;;8.55;1.65;;;;;;;4.90;49.07;100311.16;6156368;22;96953;-76
2021/12/03 01:13:49;;;;;;;8.32;1.35;;;;;;;4.90;49.15;100298.06;6157486;22;96960;-78
2021/12/03 01:16:17;;;;;;;7.78;2.20;;;;;;;4.94;48.62;100304.97;6159059;22;99150;-77
2021/12/03 01:18:45;;;;;;;6.00;1.77;;;;;;;5.08;48.07;100310.78;6160389;22;98692;-78
2021/12/03 01:21:14;;;;;;;4.07;1.60;;;;;;;4.91;48.72;100305.03;6159581;22;96777;-78
2021/12/03 01:23:41;;;;;;;7.30;2.15;;;;;;;4.68;49.10;100304.59;6158820;22;96781;-78
2021/12/03 01:26:07;;;;;;;6.28;1.73;;;;;;;4.54;50.00;100304.84;6156601;22;97753;-77
2021/12/03 01:28:34;;;;;;;11.85;2.20;;;;;;;4.51;50.06;100299.69;6155266;22;101763;-78
2021/12/03 01:31:01;;;;;;;6.10;1.90;;;;;;;4.70;49.65;100300.19;6155071;22;96701;-79
2021/12/03 01:33:27;;;;;;;4.38;2.13;;;;;;;4.73;49.66;100297.50;6156062;22;97158;-78
2021/12/03 01:35:54;;;;;;;15.25;3.13;;;;;;;4.85;49.42;100299.06;6154896;22;97768;-78
2021/12/03 01:38:22;;;;;;;10.65;1.90;;;;;;;4.87;49.62;100308.59;6155995;22;99055;-78
2021/12/03 01:40:49;;;;;;;7.30;2.55;;;;;;;4.94;49.09;100302.34;6156682;22;96759;-77
2021/12/03 01:43:21;;;;;;;7.22;1.60;;;;;;;4.88;49.21;100299.84;6157601;22;96857;-77
2021/12/03 01:45:48;;;;;;;5.72;2.00;;;;;;;4.88;49.36;100299.84;6160410;22;98900;-77
2021/12/03 01:48:14;;;;;;;7.82;2.72;;;;;;;4.83;49.18;100293.84;6157357;22;98794;-78
2021/12/03 01:50:43;;;;;;;9.73;2.03;;;;;;;5.04;49.63;100298.66;6156312;22;96715;-78
2021/12/03 01:53:13;;;;;;;12.18;4.22;;;;;;;5.04;49.86;100301.28;6156072;22;96753;-77
2021/12/03 01:55:43;;;;;;;4.90;2.50;;;;;;;5.05;49.50;100297.78;6154960;22;99465;-77
2021/12/03 01:58:11;;;;;;;9.57;2.97;;;;;;;5.12;49.69;100299.34;6156300;22;98969;-77
2021/12/03 02:00:40;;;;;;;4.03;1.98;;;;;;;5.16;49.57;100301.03;6156750;22;96555;-78
2021/12/03 02:03:09;;;;;;;9.63;2.17;;;;;;;4.86;50.00;100293.75;6155620;22;96744;-77
2021/12/03 02:05:36;;;;;;;8.63;1.92;;;;;;;4.97;49.64;100289.22;6155248;22;98881;-78
2021/12/03 02:08:03;;;;;;;9.15;2.60;;;;;;;5.03;49.60;100294.31;6156094;22;99031;-78
2021/12/03 02:10:30;;;;;;;8.25;2.15;;;;;;;4.79;50.00;100281.72;6155484;22;97044;-77
2021/12/03 02:12:58;;;;;;;7.70;2.65;;;;;;;5.11;49.41;100292.41;6155860;22;96831;-77
2021/12/03 02:15:25;;;;;;;6.55;2.53;;;;;;;5.24;49.68;100282.53;6155671;22;98902;-77
2021/12/03 02:17:52;;;;;;;7.40;2.40;;;;;;;5.29;49.08;100291.16;6155711;22;100766;-77
2021/12/03 02:20:19;;;;;;;8.02;2.38;;;;;;;5.25;49.50;100286.84;6156596;22;96590;-77
2021/12/03 02:22:49;;;;;;;6.95;2.08;;;;;;;5.34;48.93;100289.28;6155965;22;96888;-77
2021/12/03 02:25:21;;;;;;;5.10;2.15;;;;;;;5.30;49.03;100284.16;6156968;22;98968;-76
2021/12/03 02:27:48;;;;;;;8.95;2.47;;;;;;;5.11;49.39;100273.22;6155915;22;99133;-77
2021/12/03 02:30:15;;;;;;;7.55;2.40;;;;;;;5.28;48.70;100285.94;6155956;22;96967;-77
2021/12/03 02:32:42;;;;;;;4.85;2.15;;;;;;;5.09;48.89;100278.47;6156606;22;97495;-77
2021/12/03 02:35:10;;;;;;;10.52;2.47;;;;;;;5.37;48.98;100275.28;6155161;22;98899;-78
2021/12/03 02:37:37;;;;;;;10.40;2.58;;;;;;;5.17;49.14;100279.19;6156143;22;99278;-76
2021/12/03 02:40:07;;;;;;;7.00;2.10;;;;;;;5.34;49.25;100280.56;6155953;22;96678;-77
2021/12/03 02:42:34;;;;;;;7.72;2.33;;;;;;;5.13;49.73;100282.75;6155609;22;96608;-77
2021/12/03 02:45:00;;;;;;;5.15;1.90;;;;;;;5.19;49.32;100280.00;6155957;22;98973;-79
2021/12/03 02:47:27;;;;;;;5.25;2.40;;;;;;;5.32;48.92;100285.84;6155487;22;102038;-77
2021/12/03 02:49:54;;;;;;;10.90;2.78;;;;;;;5.11;49.18;100276.69;6156895;22;96617;-78
2021/12/03 02:52:20;;;;;;;8.25;2.33;;;;;;;4.93;50.06;100276.19;6156568;22;96620;-79
2021/12/03 02:54:47;;;;;;;8.45;1.98;;;;;;;5.07;49.80;100276.78;6156765;22;98799;-78
2021/12/03 02:57:15;;;;;;;7.65;2.17;;;;;;;5.06;50.31;100286.38;6156481;22;98940;-77
2021/12/03 02:59:42;;;;;;;5.03;2.53;;;;;;;5.16;49.44;100274.84;6158859;22;96537;-77
2021/12/03 03:02:09;;;;;;;8.02;2.22;;;;;;;5.20;49.34;100291.34;6167421;22;96767;-78
2021/12/03 03:04:43;;;;;;;5.25;1.58;;;;;;;5.03;50.07;100294.31;6183626;22;98908;-80
2021/12/03 03:07:31;;;;;;;7.28;2.22;;;;;;;5.34;48.84;100296.28;6184288;22;97665;-80
2021/12/03 03:10:28;;;;;;;;;;;;;;;;;;;;;
2021/12/03 03:13:06;;;;;;;9.15;2.03;;;;;;;5.22;48.96;100294.78;6129520;22;113608;-79
2021/12/03 03:15:51;;;;;;;5.20;1.67;;;;;;;5.32;48.56;100290.22;6154626;22;98867;-78
2021/12/03 03:18:49;;;;;;;;;;;;;;;;;;;;;
2021/12/03 03:21:30;;;;;;;7.50;1.77;;;;;;;5.13;49.77;100292.34;6149069;22;114165;-79
2021/12/03 03:23:57;;;;;;;9.18;1.95;;;;;;;5.31;48.51;100296.38;6155869;22;96637;-78
2021/12/03 03:26:24;;;;;;;7.55;2.10;;;;;;;4.87;49.71;100299.88;6153980;22;98803;-78
2021/12/03 03:28:55;;;;;;;5.93;1.80;;;;;;;5.13;49.50;100294.97;6155118;22;98689;-79
2021/12/03 03:31:23;;;;;;;6.32;2.13;;;;;;;5.25;49.11;100299.13;6155074;22;96761;-78
2021/12/03 03:33:50;;;;;;;8.80;2.38;;;;;;;5.01;49.72;100306.56;6155445;22;96770;-78
2021/12/03 03:36:17;;;;;;;8.07;1.98;;;;;;;5.16;49.22;100300.16;6153125;22;99087;-79
2021/12/03 03:38:43;;;;;;;10.60;2.10;;;;;;;4.99;49.32;100303.09;6154903;22;97936;-78
2021/12/03 03:41:12;;;;;;;8.23;1.67;;;;;;;4.99;49.63;100297.88;6155561;22;97155;-79
2021/12/03 03:43:39;;;;;;;8.80;1.80;;;;;;;5.33;49.50;100302.41;6155792;22;96807;-77
2021/12/03 03:46:07;;;;;;;3.22;1.90;;;;;;;5.51;48.21;100304.66;6154084;22;99377;-78
2021/12/03 03:48:34;;;;;;;5.90;2.00;;;;;;;5.20;48.76;100302.69;6154017;22;99098;-78
2021/12/03 03:51:01;;;;;;;14.07;2.20;;;;;;;5.28;49.01;100306.91;6153873;22;97534;-78
2021/12/03 03:53:28;;;;;;;7.63;2.30;;;;;;;5.27;48.68;100307.78;6156604;22;96763;-78
2021/12/03 03:55:56;;;;;;;6.15;2.30;;;;;;;5.39;48.85;100307.53;6154978;22;99235;-77
2021/12/03 03:58:22;;;;;;;13.98;2.13;;;;;;;5.14;49.41;100308.06;6154345;22;98922;-78
2021/12/03 04:00:49;;;;;;;6.13;2.03;;;;;;;5.20;48.89;100313.16;6160153;22;97074;-77
2021/12/03 04:03:17;;;;;;;9.35;2.88;;;;;;;5.35;48.85;100305.88;6155767;22;96837;-77
2021/12/03 04:05:56;;;;;;;;;;;;;;;;;;;;;
2021/12/03 04:08:29;;;;;;;6.35;3.30;;;;;;;4.78;50.07;100312.25;6160000;22;127280;-78
2021/12/03 04:10:58;;;;;;;8.52;2.10;;;;;;;5.04;49.88;100316.13;6177676;22;96865;-79
2021/12/03 04:13:37;;;;;;;;;;;;;;;;;;;;;
2021/12/03 04:16:24;;;;;;;10.60;2.08;;;;;;;5.35;49.22;100319.84;6165960;22;127426;-77
2021/12/03 04:18:52;;;;;;;;;;;;;;;5.59;48.82;100315.81;6172104;22;97929;-77
2021/12/03 04:21:56;;;;;;;;;;;;;;;;;;;;;
2021/12/03 04:24:47;;;;;;;;;;;;;;;;;;;;;
2021/12/03 04:27:17;;;;;;;5.47;2.17;;;;;;;5.28;49.32;100317.38;6148227;22;128885;-78
2021/12/03 04:29:44;;;;;;;6.53;1.83;;;;;;;5.08;49.77;100316.03;6172098;22;100333;-79
2021/12/03 04:32:12;;;;;;;5.80;2.00;;;;;;;4.97;49.69;100317.16;6168507;22;96561;-78
2021/12/03 04:34:44;;;;;;;8.02;2.30;;;;;;;5.22;49.65;100306.16;6155741;22;97344;-78
2021/12/03 04:37:20;;;;;;;;;;;;;;;;;;;;;
2021/12/03 04:39:49;;;;;;;3.78;1.88;;;;;;;5.43;49.27;100320.56;6153197;22;128210;-78
2021/12/03 04:42:15;;;;;;;9.20;2.00;;;;;;;5.43;48.97;100324.94;6154019;22;96714;-77
2021/12/03 04:44:52;;;;;;;;;;;;;;;;;;;;;
2021/12/03 04:47:19;;;;;;;4.15;2.28;;;;;;;5.03;48.77;100333.59;6152311;22;127827;-78
2021/12/03 04:49:47;;;;;;;3.38;1.52;;;;;;;4.97;49.97;100330.22;6154518;22;99315;-77
2021/12/03 04:52:13;;;;;;;4.55;1.70;;;;;;;4.98;50.27;100327.59;6154190;22;96680;-79
2021/12/03 04:54:41;;;;;;;4.72;2.10;;;;;;;5.07;50.04;100332.63;6155516;22;96757;-79
2021/12/03 04:57:09;;;;;;;6.45;1.98;;;;;;;5.20;49.99;100321.03;6154659;22;99156;-80
2021/12/03 04:59:36;;;;;;;11.43;2.60;;;;;;;5.51;49.26;100341.38;6158443;22;100681;-79
2021/12/03 05:02:03;;;;;;;9.35;2.00;;;;;;;4.82;50.34;100327.00;6176907;22;96681;-81
2021/12/03 05:04:36;;;;;;;5.20;1.73;;;;;;;5.05;49.89;100333.56;6177361;22;96612;-78
2021/12/03 05:07:16;;;;;;;11.68;2.00;;;;;;;4.86;50.81;100322.56;6162914;22;97809;-79
2021/12/03 05:09:42;;;;;;;4.60;1.92;;;;;;;5.16;50.05;100323.75;6155468;22;98025;-79
2021/12/03 05:12:09;;;;;;;3.88;1.55;;;;;;;5.04;49.80;100324.00;6154966;22;96655;-79
2021/12/03 05:14:38;;;;;;;6.35;1.95;;;;;;;5.15;50.06;100335.97;6155325;22;98278;-78
2021/12/03 05:17:06;;;;;;;8.70;1.85;;;;;;;5.26;49.19;100337.50;6154463;22;98928;-78
2021/12/03 05:19:32;;;;;;;11.18;2.53;;;;;;;5.01;50.18;100338.00;6154164;22;96988;-79
2021/12/03 05:22:00;;;;;;;6.03;2.00;;;;;;;5.37;49.40;100332.94;6159899;22;96655;-77
2021/12/03 05:24:28;;;;;;;11.43;3.90;;;;;;;5.42;49.30;100338.91;6155260;22;97121;-78
2021/12/03 05:26:56;;;;;;;10.13;2.38;;;;;;;5.38;49.54;100334.66;6160632;22;98882;-78
2021/12/03 05:29:23;;;;;;;4.70;1.80;;;;;;;5.31;49.22;100347.00;6155593;22;98959;-78
2021/12/03 05:31:52;;;;;;;3.75;1.77;;;;;;;5.23;49.49;100348.91;6156026;22;97339;-79
2021/12/03 05:34:19;;;;;;;6.82;2.08;;;;;;;5.32;49.55;100345.22;6155737;22;96712;-78
2021/12/03 05:36:46;;;;;;;10.73;1.95;;;;;;;4.97;50.66;100352.03;6155772;22;98935;-79
2021/12/03 05:39:14;;;;;;;4.20;1.83;;;;;;;4.85;49.58;100359.28;6155742;22;101891;-77
2021/12/03 05:41:42;;;;;;;4.10;2.10;;;;;;;5.00;49.89;100357.22;6155708;22;96600;-79
2021/12/03 05:44:08;;;;;;;6.55;2.38;;;;;;;5.03;50.58;100358.91;6156015;22;96707;-79
2021/12/03 05:46:35;;;;;;;5.47;1.98;;;;;;;5.39;49.41;100362.56;6155979;22;99058;-78
2021/12/03 05:49:02;;;;;;;8.50;2.53;;;;;;;5.19;49.45;100360.34;6155778;22;98718;-78
2021/12/03 05:51:30;;;;;;;7.15;1.98;;;;;;;5.15;49.79;100369.16;6157141;22;97257;-78
2021/12/03 05:53:57;;;;;;;5.13;1.95;;;;;;;4.94;50.03;100369.56;6157063;22;96780;-79
2021/12/03 05:56:24;;;;;;;7.30;2.20;;;;;;;5.00;49.92;100383.41;6155292;22;101501;-77
2021/12/03 05:58:52;;;;;;;8.02;2.30;;;;;;;5.13;49.79;100379.66;6156902;22;98646;-78
2021/12/03 06:01:19;;;;;;;5.60;2.65;;;;;;;4.54;50.92;100379.84;6157341;22;96670;-78
2021/12/03 06:03:46;;;;;;;5.68;2.40;;;;;;;4.39;51.43;100389.72;6162834;22;97346;-77
2021/12/03 06:06:14;;;;;;;6.55;2.25;;;;;;;4.67;51.84;100384.00;6161199;22;97855;-77
2021/12/03 06:08:52;;;;;;;;;;;;;;;;;;;;;
2021/12/03 06:12:07;;;;;;;;;;;;;;;;;;;;;
2021/12/03 06:18:26;;;;;;;10.52;2.83;;;;;;;4.53;51.73;100380.78;5975496;23;100785;-79
2021/12/03 06:20:54;;;;;;;5.63;2.30;;;;;;;4.87;50.58;100386.25;6035968;22;97982;-78
2021/12/03 06:23:21;;;;;;;6.20;2.83;;;;;;;4.92;50.90;100393.16;6154788;22;97143;-78
2021/12/03 06:25:48;;;;;;;6.18;2.75;;;;;;;5.11;50.49;100380.59;6156396;22;97473;-80
2021/12/03 06:28:14;;;;;;;6.55;2.85;;;;;;;4.68;51.55;100397.06;6153779;22;98806;-78
2021/12/03 06:30:41;;;;;;;5.93;2.53;;;;;;;5.06;51.10;100391.13;6155851;22;100683;-79
2021/12/03 06:33:08;;;;;;;9.20;2.95;;;;;;;4.86;51.29;100385.41;6155214;22;97082;-79
2021/12/03 06:35:35;;;;;;;15.43;3.75;;;;;;;4.58;51.67;100392.88;6154884;22;96986;-79
2021/12/03 06:38:09;;;;;;;9.32;2.97;;;;;;;4.92;50.99;100382.69;6157248;22;98385;-79
2021/12/03 06:40:35;;;;;;;8.95;3.40;;;;;;;5.10;50.48;100378.88;6157024;22;101230;-78
2021/12/03 06:43:02;;;;;;;7.38;2.90;;;;;;;5.17;50.92;100391.81;6160808;22;96773;-77
2021/12/03 06:45:29;;;;;;;8.25;2.97;;;;;;;5.08;50.67;100380.63;6176822;22;96400;-77
2021/12/03 06:47:55;;;;;;;9.38;3.30;;;;;;;5.03;50.33;100375.50;6174128;22;98174;-77
2021/12/03 06:50:23;;;;;;;10.43;3.53;;;;;;;5.16;50.15;100386.59;6159363;22;101240;-78
2021/12/03 06:52:55;;;;;;;8.52;2.97;;;;;;;4.89;50.48;100392.34;6157064;22;96617;-78
2021/12/03 06:55:23;;;;;;;7.82;3.20;;;;;;;5.08;50.86;100391.97;6156230;22;97018;-77
2021/12/03 06:57:50;;;;;;;11.27;4.03;;;;;;;5.10;51.34;100394.56;6153030;22;99463;-77
2021/12/03 07:00:17;;;;;;;8.38;3.55;;;;;;;4.97;50.91;100401.81;6155787;22;99149;-76
2021/12/03 07:02:43;;;;;;;17.65;3.80;;;;;;;5.30;50.27;100402.06;6155216;22;96696;-77
2021/12/03 07:05:10;;;;;;;10.68;3.72;;;;;;;5.19;50.76;100400.50;6155656;22;96513;-78
2021/12/03 07:07:37;;;;;;;9.57;4.10;;;;;;;4.94;51.57;100416.69;6156082;22;97169;-77
2021/12/03 07:10:05;;;;;;;8.35;3.85;;;;;;;5.16;50.75;100424.13;6153810;22;98968;-77
2021/12/03 07:12:33;;;;;;;9.05;3.78;;;;;;;5.35;50.71;100415.91;6155276;22;96617;-79
2021/12/03 07:15:00;;;;;;;8.43;3.78;;;;;;;5.66;49.49;100421.41;6155883;22;96849;-77
2021/12/03 07:17:30;;;;;;;7.90;4.05;;;;;;;5.66;49.35;100422.28;6157050;22;98068;-79
2021/12/03 07:19:57;;;;;;;8.23;3.75;;;;;;;5.43;49.94;100424.50;6154556;22;98188;-78
2021/12/03 07:22:24;;;;;;;8.48;3.80;;;;;;;5.54;50.15;100422.53;6155993;22;96625;-78
2021/12/03 07:24:51;;;;;;;8.95;3.28;;;;;;;5.74;49.55;100429.97;6155572;22;96982;-76
2021/12/03 07:27:17;;;;;;;10.55;4.30;;;;;;;5.51;50.05;100439.16;6155221;22;98944;-78
2021/12/03 07:29:47;;;;;;;9.18;3.72;;;;;;;5.66;49.61;100442.38;6155105;22;98980;-76
2021/12/03 07:32:14;;;;;;;13.05;4.72;;;;;;;5.62;48.96;100433.72;6152930;22;97062;-77
2021/12/03 07:34:41;;;;;;;11.25;4.38;;;;;;;5.82;49.11;100431.56;6158396;22;96743;-77
2021/12/03 07:37:08;;;;;;;14.98;4.85;;;;;;;5.69;49.25;100442.31;6154275;22;101550;-78
2021/12/03 07:39:34;;;;;;;10.88;4.22;;;;;;;5.75;49.50;100432.59;6153526;22;101607;-78
2021/12/03 07:42:01;;;;;;;9.40;4.28;;;;;;;5.96;49.50;100432.16;6153499;22;97038;-77
2021/12/03 07:44:28;;;;;;;9.63;4.05;;;;;;;5.92;48.89;100430.50;6152189;22;96897;-78
2021/12/03 07:46:59;;;;;;;10.18;4.35;;;;;;;5.94;48.53;100439.19;6152844;22;98942;-80
2021/12/03 07:49:26;;;;;;;10.57;4.55;;;;;;;6.04;48.44;100445.09;6149541;22;98875;-77
2021/12/03 07:51:54;;;;;;;7.30;4.35;;;;;;;5.60;50.64;100438.13;6151515;22;97361;-78
2021/12/03 07:54:21;;;;;;;11.30;4.60;;;;;;;5.88;48.78;100452.44;6152044;22;96704;-79
2021/12/03 07:56:48;;;;;;;10.48;4.35;;;;;;;5.67;50.01;100457.22;6153721;22;98918;-79
2021/12/03 07:59:14;;;;;;;11.02;4.15;;;;;;;6.09;48.54;100455.50;6151800;22;98751;-78
2021/12/03 08:01:42;;;;;;;10.77;4.40;;;;;;;5.63;49.75;100453.81;6152096;22;96593;-78
2021/12/03 08:04:13;;;;;;;11.93;5.20;;;;;;;5.46;50.49;100461.13;6153689;22;96973;-78
2021/12/03 08:06:42;;;;;;;10.15;4.50;;;;;;;5.82;49.24;100460.41;6152374;22;98791;-78
2021/12/03 08:09:19;;;;;;;;;;;;;;;;;;;;;
2021/12/03 08:11:51;;;;;;;8.82;4.05;;;;;;;5.63;50.23;100463.44;6161999;22;113256;-79
2021/12/03 08:14:27;;;;;;;14.25;4.70;;;;;;;5.55;50.19;100474.06;6173487;22;97208;-80
2021/12/03 08:17:09;;;;;;;12.13;4.47;;;;;;;5.85;49.63;100462.06;6170795;22;98259;-79
2021/12/03 08:23:37;;;;;;;;;;;;;;;;;;;;;
2021/12/03 08:26:05;;;;;;;9.13;4.47;;;;;;;6.02;48.65;100474.88;6095054;22;113746;-77
2021/12/03 08:28:34;;;;;;;9.30;4.80;;;;;;;6.18;48.69;100471.03;6153185;22;98437;-78
2021/12/03 08:31:31;;;;;;;10.93;4.75;;;;;;;6.37;47.78;100485.47;6154223;22;97985;-79
2021/12/03 08:34:02;;;;;;;11.98;4.57;;;;;;;6.29;47.64;100480.41;6149072;22;97009;-79
2021/12/03 08:36:39;;;;;;;;;;;;;;;;;;;;;
2021/12/03 08:39:06;;;;;;;9.77;4.72;;;;;;;6.39;47.27;100474.03;6152735;22;127720;-79
2021/12/03 08:41:36;;;;;;;9.15;4.30;;;;;;;6.34;47.53;100480.28;6154483;22;98947;-77
2021/12/03 08:44:05;;;;;;;9.90;4.05;;;;;;;6.37;47.87;100480.22;6155323;22;96653;-79
2021/12/03 08:46:39;;;;;;;8.27;4.53;;;;;;;6.54;47.55;100480.72;6171405;22;97469;-79
2021/12/03 08:49:28;;;;;;;9.60;4.28;;;;;;;6.37;47.67;100481.06;6173932;22;97710;-78
2021/12/03 08:52:13;;;;;;;12.70;4.45;;;;;;;6.17;48.46;100492.94;6161735;22;98720;-80
2021/12/03 08:58:15;;;;;;;;;;;;;;;;;;;;;
2021/12/03 09:00:44;;;;;;;7.22;4.00;;;;;;;6.67;46.93;100489.16;6072752;22;126920;-77
2021/12/03 09:03:11;;;;;;;10.52;4.03;;;;;;;6.86;47.00;100487.81;6148671;22;101006;-76
2021/12/03 09:05:39;;;;;;;11.82;4.38;;;;;;;7.04;46.43;100489.13;6152619;22;97640;-77
2021/12/03 09:08:05;;;;;;;7.63;3.80;;;;;;;6.88;46.78;100488.66;6164851;22;97316;-76
2021/12/03 09:10:32;;;;;;;7.70;3.80;;;;;;;6.83;46.11;100487.03;6166413;22;99490;-77
2021/12/03 09:12:58;;;;;;;7.93;3.67;;;;;;;6.38;47.47;100485.44;6166372;22;97826;-77
2021/12/03 09:15:30;;;;;;;12.32;3.95;;;;;;;6.45;47.43;100487.91;6169761;22;96759;-77
2021/12/03 09:18:12;;;;;;;9.48;3.58;;;;;;;6.96;46.48;100491.06;6165948;22;97174;-75
2021/12/03 09:20:49;;;;;;;13.77;3.83;;;;;;;6.87;46.52;100491.31;6167369;22;98128;-76
2021/12/03 09:23:19;;;;;;;7.60;3.50;;;;;;;6.95;46.43;100492.84;6164195;22;98764;-76
2021/12/03 09:25:51;;;;;;;11.55;4.10;;;;;;;7.18;46.01;100492.25;6155701;22;96662;-75
2021/12/03 09:28:17;;;;;;;8.10;3.80;;;;;;;7.41;44.93;100489.91;6168183;22;97264;-79
2021/12/03 09:30:44;;;;;;;7.63;3.63;;;;;;;6.96;46.17;100506.81;6156991;22;97925;-76
2021/12/03 09:33:15;;;;;;;9.35;3.83;;;;;;;7.41;44.64;100487.28;6158000;22;98292;-76
2021/12/03 09:35:45;;;;;;;6.35;3.30;;;;;;;6.77;46.06;100498.53;6155459;22;96647;-77
2021/12/03 09:38:12;;;;;;;9.02;3.40;;;;;;;7.02;45.66;100494.41;6155164;22;96778;-77
2021/12/03 09:40:41;;;;;;;7.38;4.03;;;;;;;6.98;45.65;100489.28;6154328;22;98960;-78
2021/12/03 09:43:08;;;;;;;7.75;3.17;;;;;;;7.06;45.96;100503.94;6155928;22;99238;-76
2021/12/03 09:45:34;;;;;;;9.75;3.83;;;;;;;7.50;44.82;100492.28;6156099;22;96951;-76
2021/12/03 09:48:06;;;;;;;8.93;4.13;;;;;;;7.81;44.24;100483.56;6156911;22;96932;-75
2021/12/03 09:50:34;;;;;;;7.43;3.33;;;;;;;7.86;43.76;100484.28;6155508;22;99298;-76
2021/12/03 09:53:15;;;;;;;12.88;3.40;;;;;;;8.00;43.58;100480.38;6156321;22;99011;-76
2021/12/03 09:55:42;;;;;;;7.20;3.30;;;;;;;8.28;42.84;100485.66;6154962;22;96718;-76
2021/12/03 09:58:17;;;;;;;10.25;3.97;;;;;;;8.18;42.92;100488.59;6158537;22;97168;-77
2021/12/03 10:00:49;;;;;;;6.20;3.22;;;;;;;7.76;44.08;100491.56;6155263;22;100233;-76
2021/12/03 10:03:27;;;;;;;10.10;3.75;;;;;;;7.46;44.41;100492.41;6178610;22;99225;-76
2021/12/03 10:12:00;;;;;;;12.80;3.50;;;;;;;7.94;42.94;100484.94;6181481;22;97110;-78
2021/12/03 10:14:48;;;;;;;8.55;3.63;;;;;;;8.05;43.29;100476.72;6179804;22;98326;-76
2021/12/03 10:17:40;;;;;;;6.00;2.75;;;;;;;7.72;43.77;100482.03;6179100;22;96576;-75
2021/12/03 10:20:18;;;;;;;5.78;3.08;;;;;;;8.17;43.07;100471.94;6171516;22;97062;-76
2021/12/03 10:23:24;;;;;;;6.80;3.33;;;;;;;8.44;42.71;100479.94;6174833;22;99306;-76
2021/12/03 10:26:24;;;;;;;7.90;2.95;;;;;;;8.85;41.41;100478.66;6173770;22;98463;-77
2021/12/03 10:34:55;;;;;;;7.45;3.35;;;;;;;9.07;40.73;100487.56;6155865;22;98989;-77
2021/12/03 10:37:50;;;;;;;9.05;2.80;;;;;;;9.04;40.38;100492.94;6153531;22;98803;-76
2021/12/03 10:43:20;;;;;;;4.60;2.47;;;;;;;8.61;41.76;100483.78;6134847;22;98005;-75
2021/12/03 10:46:05;;;;;;;6.30;2.42;;;;;;;8.87;41.23;100475.03;6155844;22;98872;-77
2021/12/03 10:48:40;;;;;;;6.38;2.58;;;;;;;8.90;41.02;100477.59;6158313;22;98729;-76
2021/12/03 10:51:30;;;;;;;7.53;2.70;;;;;;;8.87;41.41;100469.75;6171176;22;96602;-76
2021/12/03 10:54:03;;;;;;;5.78;2.92;;;;;;;9.25;40.41;100462.38;6178956;22;96684;-76
2021/12/03 11:08:22;;;;;;;6.57;2.60;;;;;;;8.33;42.27;100462.72;6175271;22;97876;-76
2021/12/03 11:20:02;;;;;;;5.13;2.60;;;;;;;7.95;43.14;100468.22;4993299;28;97065;-76
2021/12/03 11:26:07;;;;;;;9.93;3.15;;;;;;;8.18;42.82;100471.06;4967741;28;96812;-76
2021/12/03 11:28:52;;;;;;;7.32;2.75;;;;;;;8.40;42.38;100469.50;4969236;28;99003;-77
2021/12/03 11:33:31;;;;;;;7.43;2.83;;;;;;;8.32;42.45;100470.66;4969371;28;96821;-78
2021/12/03 13:15:57;;;;;;;12.93;3.40;;;;;;;8.62;42.28;100437.22;4965010;28;97525;-77
2021/12/03 13:19:08;;;;;;;;;;;;;;;8.61;42.00;100440.78;4974375;28;96703;-77
2021/12/03 13:25:14;;;;;;;8.60;2.75;;;;;;;8.87;41.50;100438.16;4962344;28;97464;-76
2021/12/03 14:43:44;;;;;;;13.50;7.22;;;;;;;7.80;44.36;100423.97;4971485;28;97777;-77
2021/12/03 14:46:35;;;;;;;16.58;7.50;;;;;;;7.93;44.36;100425.31;4959980;28;97633;-78
2021/12/03 14:52:05;;;;;;;12.57;7.10;;;;;;;7.97;44.16;100421.69;4952793;28;97201;-76
2021/12/03 14:57:29;;;;;;;15.05;7.20;;;;;;;7.74;45.08;100424.16;4954950;28;98899;-77
2021/12/03 15:00:12;;;;;;;14.25;7.65;;;;;;;7.85;44.92;100422.06;4958787;28;96839;-77
2021/12/03 15:03:02;;;;;;;12.30;7.05;;;;;;;7.94;45.04;100417.38;4976327;22;97760;-76
2021/12/03 15:08:21;;;;;;;14.35;7.38;;;;;;;8.00;44.80;100416.34;4972838;28;97403;-77
2021/12/03 15:11:13;;;;;;;12.23;6.47;;;;;;;7.45;45.93;100411.81;4971476;28;96888;-79
2021/12/03 15:14:30;;;;;;;14.50;7.65;;;;;;;7.44;46.42;100424.09;4972833;28;101392;-76
2021/12/03 15:25:13;;;;;;;15.30;7.78;;;;;;;7.72;46.30;100418.06;4968164;28;97958;-76
2021/12/03 15:27:57;;;;;;;18.52;6.95;;;;;;;7.60;46.25;100400.88;4972624;28;99389;-76
2021/12/03 15:33:11;;;;;;;11.98;6.28;;;;;;;7.59;46.21;100405.25;4961006;28;96846;-76
2021/12/03 15:35:49;;;;;;;13.55;6.47;;;;;;;7.76;46.25;100399.50;4974233;28;99044;-75
2021/12/03 15:38:25;;;;;;;19.90;7.35;;;;;;;8.03;45.34;100397.81;4969993;28;99457;-77
2021/12/03 15:41:19;;;;;;;;;;;;;;;7.57;46.00;100388.66;4971448;28;96919;-76
2021/12/03 15:57:43;;;;;;;14.30;6.65;;;;;;;7.20;47.23;100369.59;4971606;28;96803;-78
2021/12/03 16:08:23;;;;;;;15.73;7.32;;;;;;;7.51;47.05;100366.94;4979748;28;97924;-77
2021/12/03 16:10:57;;;;;;;17.50;7.82;;;;;;;7.49;47.03;100366.13;4975179;28;98462;-77
2021/12/03 16:13:36;;;;;;;13.80;6.93;;;;;;;7.58;47.30;100366.72;4977382;28;96863;-77
2021/12/03 16:19:17;;;;;;;15.65;7.03;;;;;;;7.52;47.11;100363.41;4976045;28;98470;-77
2021/12/03 16:21:54;;;;;;;10.10;6.70;;;;;;;7.78;46.57;100358.25;4974224;28;98793;-77
2021/12/03 16:44:12;;;;;;;12.35;6.13;;;;;;;7.24;48.03;100328.31;4970749;28;98753;-78
2021/12/03 16:46:57;;;;;;;9.20;5.90;;;;;;;7.15;48.34;100327.66;4977701;28;96766;-77
2021/12/03 16:52:29;;;;;;;10.35;5.85;;;;;;;7.30;47.78;100307.09;4968008;28;98046;-78
2021/12/03 16:54:57;;;;;;;14.77;6.40;;;;;;;7.37;47.02;100308.66;4971562;28;101439;-78
2021/12/03 16:57:33;;;;;;;10.90;5.88;;;;;;;7.16;47.29;100304.88;4974929;28;96935;-78
2021/12/03 17:00:51;;;;;;;14.05;6.25;;;;;;;6.86;48.67;100311.84;4969675;28;98238;-79
2021/12/03 17:03:24;;;;;;;10.02;5.40;;;;;;;7.16;48.29;100310.97;4975991;28;99658;-79
2021/12/03 17:09:14;;;;;;;12.98;6.22;;;;;;;7.19;47.55;100331.94;4973224;28;98599;-80
2021/12/03 17:14:49;;;;;;;13.45;6.28;;;;;;;7.05;48.08;100323.56;4971357;28;98980;-78